PWSweather.com
Personal Weather Stations
Station Observations
AUMAP01
Sunshine Coast Hinterland, MapletonAU 4560

Sunshine Coast HinterlandMapletonAU 4560

Lat: -26.61972, Lon: 152.85944

Elevation: 1319

Station Type: Davis Vantage Pro 2

http://mapletonweather.mykoala.net

Latest ConditionsUpdated 9:10:03 AM GMT+10:10 Wednesday, Mar 27, 2019
Currently Today's Max Today's Min Today's Average
Temperature 66.6°F19.2°C 72.0°F22.2°C 66.6°F19.2°C 70.5°F21.4°C
Dew Point 66.0°F18.9°C 70.9°F21.6°C 66.0°F18.9°C 69.5°F20.8°C
Winds 4.0 mph SSE6.4 kmh SSE 5.0 mph -8.0 kmh - - 1.3 mph 2.1 kmh
Wind Gusts 11.0 mph17.7 kmh 18.0 mph29.0 kmh - -
Humidity 98% 98% 92% 97%
Pressure 30.08 in1018.6 mb 30.08 in1018.6 mb 29.96 in1014.6 mb -
Precipitation - 0.06 in1.5 mm - -
Hour Temp Dew Point Humidity Winds Wind Gusts Pressure Precip Precip Rate Daily Precip Total
09:10 AM 66.6°F19.2°C 66.0°F18.9°C 98% 4.0 mph SSE6.4 kmh SSE 11.0 mph17.7 kmh 30.08 in1018.6 mb 0.02 in0.5 mm 0.12 in3.0 mm 0.06 in1.5 mm
09:00 AM 66.7°F19.3°C 66.2°F19.0°C 98% 3.0 mph S4.8 kmh S 10.0 mph16.1 kmh 30.08 in1018.6 mb 0.00 in0.0 mm 0.00 in0.0 mm 0.04 in1.0 mm
08:50 AM 66.7°F19.3°C 66.2°F19.0°C 98% 4.0 mph S6.4 kmh S 14.0 mph22.5 kmh 30.08 in1018.6 mb 0.01 in0.3 mm 0.00 in0.0 mm 0.04 in1.0 mm
08:40 AM 66.9°F19.4°C 66.4°F19.1°C 98% 5.0 mph SSE8.0 kmh SSE 14.0 mph22.5 kmh 30.08 in1018.6 mb 0.03 in0.8 mm 0.00 in0.0 mm 0.04 in1.0 mm
08:30 AM 66.9°F19.4°C 66.4°F19.1°C 98% 5.0 mph SSE8.0 kmh SSE 17.0 mph27.4 kmh 30.08 in1018.6 mb 0.04 in1.0 mm 0.00 in0.0 mm 0.04 in1.0 mm
08:20 AM 67.3°F19.6°C 66.6°F19.2°C 98% 4.0 mph SSE6.4 kmh SSE 12.0 mph19.3 kmh 30.07 in1018.3 mb 0.04 in1.0 mm 0.00 in0.0 mm 0.04 in1.0 mm
08:10 AM 67.5°F19.7°C 66.6°F19.2°C 97% 5.0 mph SSE8.0 kmh SSE 16.0 mph25.7 kmh 30.07 in1018.3 mb 0.04 in1.0 mm 0.06 in1.5 mm 0.04 in1.0 mm
08:00 AM 67.8°F19.9°C 66.9°F19.4°C 97% 4.0 mph SSE6.4 kmh SSE 9.0 mph14.5 kmh 30.06 in1017.9 mb 0.03 in0.8 mm 0.00 in0.0 mm 0.03 in0.8 mm
07:50 AM 68.2°F20.1°C 67.3°F19.6°C 97% 5.0 mph SE8.0 kmh SE 14.0 mph22.5 kmh 30.06 in1017.9 mb 0.03 in0.8 mm 0.12 in3.0 mm 0.03 in0.8 mm
07:40 AM 69.1°F20.6°C 67.8°F19.9°C 96% 5.0 mph SSE8.0 kmh SSE 11.0 mph17.7 kmh 30.05 in1017.6 mb 0.01 in0.3 mm 0.06 in1.5 mm 0.01 in0.3 mm
07:30 AM 70.2°F21.2°C 68.5°F20.3°C 95% 5.0 mph SSE8.0 kmh SSE 18.0 mph29.0 kmh 30.05 in1017.6 mb 0.00 in0.0 mm 0.00 in0.0 mm 0.00 in0.0 mm
07:20 AM 70.9°F21.6°C 69.4°F20.8°C 95% 4.0 mph S6.4 kmh S 12.0 mph19.3 kmh 30.04 in1017.3 mb 0.00 in0.0 mm 0.00 in0.0 mm 0.00 in0.0 mm
07:10 AM 71.2°F21.8°C 69.4°F20.8°C 94% 3.0 mph SE4.8 kmh SE 10.0 mph16.1 kmh 30.04 in1017.3 mb 0.00 in0.0 mm 0.00 in0.0 mm 0.00 in0.0 mm
07:00 AM 71.4°F21.9°C 69.6°F20.9°C 94% 4.0 mph SSE6.4 kmh SSE 13.0 mph20.9 kmh 30.04 in1017.3 mb 0.00 in0.0 mm 0.00 in0.0 mm 0.00 in0.0 mm
06:50 AM 71.8°F22.1°C 69.8°F21.0°C 94% 3.0 mph SSE4.8 kmh SSE 12.0 mph19.3 kmh 30.03 in1016.9 mb 0.00 in0.0 mm 0.00 in0.0 mm 0.00 in0.0 mm
06:40 AM 71.4°F21.9°C 69.6°F20.9°C 94% 2.0 mph SSE3.2 kmh SSE 6.0 mph9.7 kmh 30.03 in1016.9 mb 0.00 in0.0 mm 0.00 in0.0 mm 0.00 in0.0 mm
06:30 AM 71.1°F21.7°C 68.7°F20.4°C 92% 2.0 mph S3.2 kmh S 8.0 mph12.9 kmh 30.02 in1016.6 mb 0.00 in0.0 mm 0.00 in0.0 mm 0.00 in0.0 mm
06:20 AM 70.7°F21.5°C 68.9°F20.5°C 94% 1.0 mph SSE1.6 kmh SSE 6.0 mph9.7 kmh 30.01 in1016.3 mb 0.00 in0.0 mm 0.00 in0.0 mm 0.00 in0.0 mm
06:10 AM 71.1°F21.7°C 69.8°F21.0°C 96% 1.0 mph SE1.6 kmh SE 3.0 mph4.8 kmh 30.02 in1016.6 mb 0.00 in0.0 mm 0.00 in0.0 mm 0.00 in0.0 mm
06:00 AM 71.1°F21.7°C 70.2°F21.2°C 97% Calm Calm 4.0 mph6.4 kmh 30.01 in1016.3 mb 0.00 in0.0 mm 0.00 in0.0 mm 0.00 in0.0 mm
05:50 AM 71.2°F21.8°C 70.3°F21.3°C 97% Calm Calm 3.0 mph4.8 kmh 30.01 in1016.3 mb 0.00 in0.0 mm 0.00 in0.0 mm 0.00 in0.0 mm
05:40 AM 71.2°F21.8°C 70.3°F21.3°C 97% Calm Calm 3.0 mph4.8 kmh 30.00 in1015.9 mb 0.00 in0.0 mm 0.00 in0.0 mm 0.00 in0.0 mm
05:30 AM 71.2°F21.8°C 70.3°F21.3°C 97% Calm Calm 2.0 mph3.2 kmh 30.00 in1015.9 mb 0.00 in0.0 mm 0.00 in0.0 mm 0.00 in0.0 mm
05:20 AM 71.2°F21.8°C 70.3°F21.3°C 97% 1.0 mph S1.6 kmh S 4.0 mph6.4 kmh 30.00 in1015.9 mb 0.00 in0.0 mm 0.00 in0.0 mm 0.00 in0.0 mm
05:10 AM 71.2°F21.8°C 70.5°F21.4°C 98% Calm Calm 3.0 mph4.8 kmh 30.00 in1015.9 mb 0.00 in0.0 mm 0.00 in0.0 mm 0.00 in0.0 mm
05:00 AM 71.1°F21.7°C 70.5°F21.4°C 98% Calm Calm 2.0 mph3.2 kmh 30.00 in1015.9 mb 0.00 in0.0 mm 0.00 in0.0 mm 0.00 in0.0 mm
04:50 AM 70.9°F21.6°C 70.3°F21.3°C 98% Calm Calm 1.0 mph1.6 kmh 30.00 in1015.9 mb 0.00 in0.0 mm 0.00 in0.0 mm 0.00 in0.0 mm
04:40 AM 70.9°F21.6°C 70.3°F21.3°C 98% Calm Calm 1.0 mph1.6 kmh 29.99 in1015.6 mb 0.00 in0.0 mm 0.00 in0.0 mm 0.00 in0.0 mm
04:30 AM 70.9°F21.6°C 70.3°F21.3°C 98% Calm Calm 1.0 mph1.6 kmh 29.99 in1015.6 mb 0.00 in0.0 mm 0.00 in0.0 mm 0.00 in0.0 mm
04:20 AM 70.9°F21.6°C 70.2°F21.2°C 98% Calm Calm 1.0 mph1.6 kmh 29.98 in1015.2 mb 0.00 in0.0 mm 0.00 in0.0 mm 0.00 in0.0 mm
04:10 AM 70.9°F21.6°C 70.2°F21.2°C 98% Calm Calm 1.0 mph1.6 kmh 29.97 in1014.9 mb 0.00 in0.0 mm 0.00 in0.0 mm 0.00 in0.0 mm
04:00 AM 70.7°F21.5°C 70.2°F21.2°C 98% Calm Calm -- 29.98 in1015.2 mb 0.00 in0.0 mm 0.00 in0.0 mm 0.00 in0.0 mm
03:50 AM 70.7°F21.5°C 69.8°F21.0°C 97% Calm Calm -- 29.98 in1015.2 mb 0.00 in0.0 mm 0.00 in0.0 mm 0.00 in0.0 mm
03:40 AM 70.7°F21.5°C 69.8°F21.0°C 97% Calm Calm -- 29.97 in1014.9 mb 0.00 in0.0 mm 0.00 in0.0 mm 0.00 in0.0 mm
03:30 AM 70.7°F21.5°C 69.8°F21.0°C 97% Calm Calm 1.0 mph1.6 kmh 29.97 in1014.9 mb 0.00 in0.0 mm 0.00 in0.0 mm 0.00 in0.0 mm
03:20 AM 70.9°F21.6°C 70.0°F21.1°C 97% Calm Calm 1.0 mph1.6 kmh 29.97 in1014.9 mb 0.00 in0.0 mm 0.00 in0.0 mm 0.00 in0.0 mm
03:10 AM 70.9°F21.6°C 70.0°F21.1°C 97% Calm Calm 1.0 mph1.6 kmh 29.97 in1014.9 mb 0.00 in0.0 mm 0.00 in0.0 mm 0.00 in0.0 mm
03:00 AM 70.9°F21.6°C 70.0°F21.1°C 97% Calm Calm -- 29.96 in1014.6 mb 0.00 in0.0 mm 0.00 in0.0 mm 0.00 in0.0 mm
02:50 AM 70.9°F21.6°C 70.0°F21.1°C 97% Calm Calm -- 29.97 in1014.9 mb 0.00 in0.0 mm 0.00 in0.0 mm 0.00 in0.0 mm
02:40 AM 70.9°F21.6°C 70.0°F21.1°C 97% Calm Calm 1.0 mph1.6 kmh 29.98 in1015.2 mb 0.00 in0.0 mm 0.00 in0.0 mm 0.00 in0.0 mm
02:30 AM 70.9°F21.6°C 70.0°F21.1°C 97% Calm Calm 1.0 mph1.6 kmh 29.98 in1015.2 mb 0.00 in0.0 mm 0.00 in0.0 mm 0.00 in0.0 mm
02:20 AM 71.1°F21.7°C 70.2°F21.2°C 97% Calm Calm 1.0 mph1.6 kmh 29.98 in1015.2 mb 0.00 in0.0 mm 0.00 in0.0 mm 0.00 in0.0 mm
02:10 AM 70.9°F21.6°C 70.0°F21.1°C 97% Calm Calm 1.0 mph1.6 kmh 29.98 in1015.2 mb 0.00 in0.0 mm 0.00 in0.0 mm 0.00 in0.0 mm
02:00 AM 70.9°F21.6°C 70.0°F21.1°C 97% Calm Calm -- 29.98 in1015.2 mb 0.00 in0.0 mm 0.00 in0.0 mm 0.00 in0.0 mm
01:50 AM 71.1°F21.7°C 70.2°F21.2°C 97% Calm Calm -- 29.98 in1015.2 mb 0.00 in0.0 mm 0.00 in0.0 mm 0.00 in0.0 mm
01:40 AM 71.1°F21.7°C 70.2°F21.2°C 97% Calm Calm 1.0 mph1.6 kmh 29.98 in1015.2 mb 0.00 in0.0 mm 0.00 in0.0 mm 0.00 in0.0 mm
01:30 AM 71.2°F21.8°C 70.3°F21.3°C 97% Calm Calm 1.0 mph1.6 kmh 29.98 in1015.2 mb 0.00 in0.0 mm 0.00 in0.0 mm 0.00 in0.0 mm
01:20 AM 71.2°F21.8°C 70.3°F21.3°C 97% Calm Calm 1.0 mph1.6 kmh 29.99 in1015.6 mb 0.00 in0.0 mm 0.00 in0.0 mm 0.00 in0.0 mm
01:10 AM 71.4°F21.9°C 70.3°F21.3°C 96% Calm Calm 1.0 mph1.6 kmh 29.99 in1015.6 mb 0.00 in0.0 mm 0.00 in0.0 mm 0.00 in0.0 mm
01:00 AM 71.4°F21.9°C 70.3°F21.3°C 96% Calm Calm -- 29.99 in1015.6 mb 0.00 in0.0 mm 0.00 in0.0 mm 0.00 in0.0 mm
12:50 AM 71.6°F22.0°C 70.3°F21.3°C 96% Calm Calm 1.0 mph1.6 kmh 29.99 in1015.6 mb 0.00 in0.0 mm 0.00 in0.0 mm 0.00 in0.0 mm
12:40 AM 71.8°F22.1°C 70.5°F21.4°C 96% Calm Calm -- 29.99 in1015.6 mb 0.00 in0.0 mm 0.00 in0.0 mm 0.00 in0.0 mm
12:30 AM 72.0°F22.2°C 70.7°F21.5°C 96% Calm Calm -- 30.00 in1015.9 mb 0.00 in0.0 mm 0.00 in0.0 mm 0.00 in0.0 mm
12:20 AM 72.0°F22.2°C 70.7°F21.5°C 96% Calm Calm -- 30.00 in1015.9 mb 0.00 in0.0 mm 0.00 in0.0 mm 0.00 in0.0 mm
12:10 AM 72.0°F22.2°C 70.9°F21.6°C 96% Calm Calm -- 30.00 in1015.9 mb 0.00 in0.0 mm 0.00 in0.0 mm 0.00 in0.0 mm
12:00 AM 72.0°F22.2°C 70.9°F21.6°C 96% Calm Calm 1.0 mph1.6 kmh 30.01 in1016.3 mb 0.00 in0.0 mm 0.00 in0.0 mm 0.00 in0.0 mm